Latest Weather Observations for Point Perpendicular

IDN60801

Issued at 11:02 pm EDT Tuesday 6 December 2016 (issued every 30 minutes, with the page automatically refreshed every 10 minutes)

About weather observations | Map of weather stations | Latest weather observations for NSW | Other Formats
Station Details ID: 068151 Name: POINT PERPENDICULAR AWS Lat: -35.09 Lon: 150.80 Height: 85.0 m
Data from the previous 72 hours. | See also: Recent months at Point Perpendicular
Date/Time
EDT
Temp
°C
App
Temp
°C
Dew
Point
°C
Rel
Hum
%
Delta-T
°C
Wind Press
QNH
hPa
Press
MSL
hPa
Rain since
9am
mm
Dir  Spd
km/h
Gust
km/h
Spd
kts
Gust
kts
06/11:00pm 18.9 18.3 18.9 100 0.0 S 20 33 11 18 1013.4 1013.1 0.0
06/10:30pm 19.0 18.5 19.0 100 0.0 S 20 32 11 17 1013.1 1012.8 0.0
06/10:00pm 19.4 19.0 19.4 100 0.0 S 20 33 11 18 1012.7 1012.4 0.0
06/09:30pm 19.7 19.7 19.7 100 0.0 SW 19 35 10 19 1012.7 1012.4 0.0
06/09:00pm 19.9 20.0 19.9 100 0.0 SW 19 32 10 17 1012.2 1011.9 0.0
06/08:30pm 20.1 20.1 20.1 100 0.0 SW 20 32 11 17 1011.7 1011.4 0.0
06/08:00pm 20.0 18.8 20.0 100 0.0 SW 26 39 14 21 1010.7 1010.5 0.0
06/07:31pm 20.1 18.5 20.1 100 0.0 SW 28 46 15 25 1009.6 1009.4 0.0
06/07:30pm 20.1 18.5 20.1 100 0.0 SW 28 43 15 23 1009.6 1009.4 0.0
06/07:00pm 20.9 20.4 20.7 99 0.1 SW 24 39 13 21 1009.5 1009.3 0.0
06/06:30pm 22.8 25.5 20.7 88 1.4 WNW 7 17 4 9 1009.2 1009.0 0.0
06/06:00pm 22.7 25.5 20.8 89 1.2 NNW 7 13 4 7 1008.3 1008.1 0.0
06/05:30pm 22.4 23.5 21.2 93 0.8 N 17 24 9 13 1008.0 1007.8 0.0
06/05:00pm 21.7 23.2 21.2 97 0.3 N 15 20 8 11 1008.4 1008.2 0.0
06/04:30pm 21.1 22.1 21.1 100 0.0 N 17 24 9 13 1009.1 1008.9 0.0
06/04:00pm 20.9 21.4 20.9 100 0.0 N 19 28 10 15 1009.6 1009.4 0.0
06/03:30pm 20.9 22.1 20.7 99 0.1 N 15 24 8 13 1009.9 1009.7 0.0
06/03:00pm 21.4 22.5 20.4 94 0.6 N 15 22 8 12 1010.3 1010.1 0.0
06/02:30pm 21.1 22.0 20.1 94 0.6 N 15 22 8 12 1010.3 1010.1 0.0
06/02:00pm 21.0 21.9 20.0 94 0.6 NNE 15 20 8 11 1010.5 1010.3 0.0
06/01:30pm 20.4 21.6 19.9 97 0.3 NNE 13 20 7 11 1010.6 1010.4 0.0
06/01:00pm 19.9 21.1 19.9 100 0.0 NNE 13 17 7 9 1010.7 1010.5 0.0
06/12:30pm 19.9 21.5 19.9 100 0.0 NNE 11 15 6 8 1010.7 1010.5 0.0
06/12:00pm 19.8 21.7 19.8 100 0.0 NE 9 13 5 7 1011.4 1011.1 0.0
06/11:30am 19.5 21.8 19.5 100 0.0 NNE 6 9 3 5 1012.0 1011.7 0.0
06/11:00am 19.3 21.9 19.3 100 0.0 NW 4 9 2 5 1011.9 1011.6 0.0
06/10:30am 19.1 22.0 19.1 100 0.0 NNW 2 6 1 3 1012.1 1011.8 0.0
06/10:00am 19.2 21.2 19.2 100 0.0 NNE 7 11 4 6 1011.8 1011.5 0.0
06/09:30am 18.6 21.7 18.6 100 0.0 CALM 0 6 0 3 1012.2 1011.9 0.0
06/09:00am 18.4 20.1 18.4 100 0.0 SW 7 11 4 6 1012.8 1012.5 18.8
06/08:30am 18.5 20.3 18.3 99 0.1 SW 6 9 3 5 1013.1 1012.8 16.8
06/08:00am 18.4 20.5 18.2 99 0.1 SW 4 7 2 4 1012.7 1012.4 16.8
06/07:30am 18.2 20.6 18.0 99 0.1 SSW 2 4 1 2 1012.4 1012.1 16.8
06/07:00am 18.2 20.7 18.2 100 0.0 SSW 2 4 1 2 1012.3 1012.0 16.8
06/06:30am 18.0 19.1 18.0 100 0.0 S 9 15 5 8 1012.1 1011.8 16.8
06/06:00am 18.1 19.2 18.1 100 0.0 SSW 9 15 5 8 1012.1 1011.8 16.8
06/05:30am 18.0 19.5 18.0 100 0.0 S 7 11 4 6 1011.9 1011.6 16.8
06/05:00am 17.8 18.8 17.8 100 0.0 S 9 15 5 8 1012.0 1011.7 16.8
06/04:30am 17.6 17.8 17.6 100 0.0 S 13 19 7 10 1012.0 1011.7 16.8
06/04:00am 17.6 17.8 17.6 100 0.0 S 13 19 7 10 1012.1 1011.8 16.8
06/03:30am 17.9 17.8 17.9 100 0.0 SSW 15 22 8 12 1012.1 1011.8 16.8
06/03:00am 18.1 17.7 18.1 100 0.0 SSW 17 26 9 14 1012.3 1012.0 16.6
06/02:30am 18.7 19.7 18.7 100 0.0 SW 11 15 6 8 1012.6 1012.3 16.4
06/02:00am 18.6 20.0 18.6 100 0.0 WSW 9 11 5 6 1013.1 1012.8 16.4
06/01:30am 18.5 20.4 18.5 100 0.0 WSW 6 11 3 6 1013.4 1013.1 15.2
06/01:00am 18.5 20.2 18.5 100 0.0 WSW 7 11 4 6 1013.5 1013.2 14.8
06/12:30am 18.6 20.9 18.6 100 0.0 W 4 9 2 5 1013.6 1013.3 13.2
06/12:00am 18.5 20.8 18.5 100 0.0 W 4 7 2 4 1013.6 1013.3 12.4
 
Date/Time
EDT
Temp
°C
App
Temp
°C
Dew
Point
°C
Rel
Hum
%
Delta-T
°C
Wind Press
QNH
hPa
Press
MSL
hPa
Rain since
9am
mm
Dir  Spd
km/h
Gust
km/h
Spd
kts
Gust
kts
05/11:30pm 18.7 21.0 18.5 99 0.1 WNW 4 6 2 3 1013.8 1013.5 12.2
05/11:00pm 18.1 18.4 17.8 98 0.2 S 13 20 7 11 1013.4 1013.1 11.0
05/10:30pm 18.1 16.3 17.9 99 0.1 S 24 39 13 21 1013.9 1013.6 7.2
05/10:00pm 18.2 15.8 17.4 95 0.5 S 26 39 14 21 1013.8 1013.5 3.8
05/09:30pm 19.5 17.3 16.9 85 1.6 S 24 41 13 22 1013.5 1013.2 0.2
05/09:17pm 19.8 16.6 17.2 85 1.6 SSW 30 50 16 27 1013.6 1013.3 0.0
05/09:00pm 19.6 15.8 16.8 84 1.7 S 32 46 17 25 1012.9 1012.6 0.0
05/08:32pm 20.2 17.7 18.0 87 1.4 SSW 28 46 15 25 1013.1 1012.8 0.0
05/08:30pm 20.5 18.1 18.3 87 1.4 SSW 28 37 15 20 1013.1 1012.8 0.0
05/08:00pm 20.8 19.2 19.3 91 1.0 SSW 26 41 14 22 1012.1 1011.8 0.0
05/07:30pm 21.1 19.5 20.1 94 0.6 SSW 28 43 15 23 1011.2 1010.9 0.0
05/07:00pm 21.6 21.5 21.4 99 0.1 SSW 24 39 13 21 1010.2 1010.0 0.0
05/06:30pm 23.3 24.0 22.3 94 0.7 SSW 22 35 12 19 1009.2 1009.0 0.0
05/06:00pm 25.2 27.2 21.5 80 2.5 WSW 13 32 7 17 1008.2 1008.0 0.0
05/05:59pm 25.3 27.4 21.0 77 2.8 WSW 11 32 6 17 1008.1 1007.9 0.0
05/05:30pm 30.4 31.0 17.8 46 8.1 NNE 11 15 6 8 1006.7 1006.4 0.0
05/05:00pm 29.4 33.0 22.4 66 4.8 NE 7 13 4 7 1006.9 1006.6 0.0
05/04:30pm 28.6 32.0 21.6 66 4.7 N 6 9 3 5 1007.2 1006.9 0.0
05/04:00pm 26.8 30.2 21.6 73 3.5 NE 6 9 3 5 1007.0 1006.7 0.0
05/03:30pm 26.3 27.8 20.6 71 3.8 N 13 15 7 8 1007.0 1006.7 0.0
05/03:00pm 28.0 29.6 21.5 67 4.4 NNE 15 19 8 10 1006.8 1006.5 0.0
05/02:30pm 27.9 29.1 21.4 67 4.3 NNE 17 22 9 12 1007.0 1006.7 0.0
05/02:00pm 29.7 31.3 22.2 64 5.1 NNE 17 26 9 14 1006.9 1006.6 0.0
05/01:30pm 26.2 27.0 21.8 77 2.9 NNE 20 28 11 15 1007.0 1006.7 0.0
05/01:00pm 25.9 26.5 21.1 75 3.2 NNE 19 28 10 15 1007.3 1007.0 0.0
05/12:30pm 25.4 25.7 21.5 79 2.6 NNE 22 30 12 16 1007.8 1007.6 0.0
05/12:00pm 25.7 25.1 20.5 73 3.4 NNE 24 35 13 19 1007.6 1007.3 0.0
05/11:30am 27.0 26.2 20.1 66 4.5 NNE 24 35 13 19 1007.8 1007.6 0.0
05/11:00am 27.6 27.1 19.1 59 5.5 NNE 20 30 11 16 1008.3 1008.1 0.0
05/10:30am 28.1 27.4 18.2 55 6.3 N 19 28 10 15 1008.1 1007.9 0.0
05/10:00am 28.1 28.4 18.8 57 6.0 N 15 20 8 11 1008.3 1008.1 0.0
05/09:30am 26.0 25.6 18.9 65 4.6 N 19 26 10 14 1008.6 1008.4 0.0
05/09:00am 24.6 24.1 19.9 75 3.1 N 22 32 12 17 1008.8 1008.6 0.0
05/08:30am 24.4 24.0 21.7 85 1.8 NNE 26 35 14 19 1008.8 1008.6 0.0
05/08:00am 24.3 24.4 21.8 86 1.7 NNE 24 35 13 19 1008.9 1008.7 0.0
05/07:30am 22.8 23.7 20.9 89 1.2 NNE 17 26 9 14 1008.4 1008.2 0.0
05/07:00am 22.4 22.7 20.5 89 1.2 NNE 19 26 10 14 1008.6 1008.4 0.0
05/06:30am 22.8 23.2 19.8 83 1.9 N 17 22 9 12 1008.9 1008.7 0.0
05/06:00am 21.1 21.6 21.1 100 0.0 N 20 30 11 16 1009.5 1009.3 0.0
05/05:30am 21.2 22.7 21.2 100 0.0 NNE 15 22 8 12 1009.8 1009.6 0.0
05/05:00am 21.2 22.3 21.2 100 0.0 NNE 17 24 9 13 1009.7 1009.5 0.0
05/04:30am 21.2 21.7 21.2 100 0.0 NNE 20 30 11 16 1009.1 1008.9 0.0
05/04:00am 21.3 22.1 21.3 100 0.0 NNE 19 28 10 15 1009.6 1009.4 0.0
05/03:30am 21.2 21.7 21.2 100 0.0 NE 20 33 11 18 1008.0 1007.8 0.0
05/03:00am 21.3 21.1 21.3 100 0.0 NNE 24 33 13 18 1008.8 1008.6 0.0
05/02:30am 21.3 21.1 21.3 100 0.0 NNE 24 33 13 18 1009.2 1009.0 0.0
05/02:00am 21.3 20.7 21.3 100 0.0 NNE 26 37 14 20 1009.7 1009.5 0.0
05/01:30am 21.3 20.3 21.3 100 0.0 NNE 28 39 15 21 1009.6 1009.4 0.0
05/01:00am 21.3 20.3 21.3 100 0.0 NNE 28 41 15 22 1010.0 1009.8 0.0
05/12:30am 21.4 19.7 21.4 100 0.0 NNE 32 44 17 24 1010.0 1009.8 0.0
05/12:00am 21.4 19.6 21.2 99 0.1 NNE 32 46 17 25 1010.1 1009.9 0.0
 
Date/Time
EDT
Temp
°C
App
Temp
°C
Dew
Point
°C
Rel
Hum
%
Delta-T
°C
Wind Press
QNH
hPa
Press
MSL
hPa
Rain since
9am
mm
Dir  Spd
km/h
Gust
km/h
Spd
kts
Gust
kts
04/11:30pm 21.3 19.5 21.1 99 0.1 NNE 32 43 17 23 1010.2 1010.0 0.0
04/11:00pm 21.4 20.0 21.2 99 0.1 NNE 30 41 16 22 1010.5 1010.3 0.0
04/10:30pm 21.4 19.6 21.2 99 0.1 NNE 32 43 17 23 1011.3 1011.0 0.0
04/10:00pm 21.5 19.8 21.3 99 0.1 NNE 32 41 17 22 1012.0 1011.7 0.0
04/09:30pm 21.4 20.0 21.1 98 0.2 NNE 30 41 16 22 1011.4 1011.1 0.0
04/09:00pm 21.5 20.0 21.0 97 0.3 NNE 30 41 16 22 1011.7 1011.4 0.0
04/08:30pm 21.6 19.5 20.6 94 0.6 NNE 32 41 17 22 1012.0 1011.7 0.0
04/08:00pm 21.6 19.9 20.6 94 0.6 NNE 30 41 16 22 1011.9 1011.6 0.0
04/07:30pm 21.8 20.1 20.6 93 0.8 NNE 30 41 16 22 1011.8 1011.5 0.0
04/07:00pm 22.1 20.2 20.2 89 1.2 NNE 30 41 16 22 1011.6 1011.3 0.0
04/06:30pm 22.5 21.0 20.2 87 1.5 NNE 28 41 15 22 1011.4 1011.1 0.0
04/06:00pm 22.5 20.8 19.9 85 1.7 NNE 28 39 15 21 1011.0 1010.8 0.0
04/05:30pm 23.4 21.8 20.0 81 2.2 NNE 28 37 15 20 1011.2 1010.9 0.0
04/05:00pm 23.1 20.9 19.5 80 2.3 NE 30 41 16 22 1011.4 1011.1 0.0
04/04:30pm 24.2 22.2 19.9 77 2.8 NE 30 43 16 23 1011.6 1011.3 0.0
04/04:00pm 24.8 21.9 20.1 75 3.1 NNE 35 46 19 25 1012.1 1011.8 0.0
04/03:30pm 24.1 21.5 19.6 76 2.9 NE 32 44 17 24 1012.5 1012.2 0.0
04/03:00pm 23.5 21.8 19.8 80 2.4 NE 28 41 15 22 1013.0 1012.7 0.0
04/02:30pm 23.3 21.5 19.5 79 2.4 NE 28 39 15 21 1013.3 1013.0 0.0
04/02:00pm 23.3 21.2 19.0 77 2.7 NE 28 41 15 22 1013.5 1013.2 0.0
04/01:30pm 24.3 23.6 19.4 74 3.2 NE 22 35 12 19 1014.1 1013.8 0.0
04/01:00pm 24.0 23.0 18.9 73 3.2 NE 22 33 12 18 1014.2 1013.9 0.0
04/12:30pm 23.8 23.4 19.3 76 2.9 NE 20 32 11 17 1014.6 1014.3 0.0
04/12:00pm 23.2 23.1 19.6 80 2.3 NE 19 30 10 16 1015.0 1014.7 0.0
04/11:30am 23.8 24.4 20.3 81 2.3 NE 17 28 9 15 1015.3 1015.0 0.0
04/11:00am 22.9 23.3 19.1 79 2.4 NNE 15 24 8 13 1015.4 1015.1 0.0
04/10:30am 22.3 22.3 18.9 81 2.2 NNE 17 24 9 13 1015.5 1015.2 0.0
04/10:00am 21.4 22.6 19.9 91 1.0 NNE 13 20 7 11 1015.8 1015.5 0.0
04/09:30am 20.3 22.9 20.0 98 0.2 ENE 6 9 3 5 1015.8 1015.5 0.0
04/09:00am 19.8 22.2 19.6 99 0.1 NW 6 13 3 7 1016.2 1015.9 0.4
04/08:30am 20.0 23.0 20.0 100 0.0 NW 4 9 2 5 1016.2 1015.9 0.4
04/08:00am 19.9 22.4 19.9 100 0.0 NW 6 7 3 4 1016.1 1015.8 0.4
04/07:30am 19.8 23.0 19.8 100 0.0 NNW 2 4 1 2 1016.3 1016.0 0.4
04/07:00am 19.4 22.5 19.4 100 0.0 ENE 2 4 1 2 1015.8 1015.5 0.4
04/06:30am 18.8 21.2 18.8 100 0.0 E 4 6 2 3 1015.7 1015.4 0.4
04/06:00am 18.8 20.6 18.8 100 0.0 ENE 7 9 4 5 1015.5 1015.2 0.4
04/05:30am 18.9 20.8 18.9 100 0.0 E 7 9 4 5 1015.6 1015.3 0.4
04/05:00am 18.9 21.0 18.9 100 0.0 ENE 6 9 3 5 1015.6 1015.3 0.4
04/04:30am 18.8 20.6 18.8 100 0.0 E 7 11 4 6 1015.6 1015.3 0.4
04/04:00am 18.6 20.5 18.6 100 0.0 E 6 11 3 6 1015.9 1015.6 0.4
04/03:30am 18.8 21.6 18.8 100 0.0 NE 2 4 1 2 1016.2 1015.9 0.2
04/03:00am 18.9 21.3 18.7 99 0.1 NNE 4 7 2 4 1016.2 1015.9 0.0
04/02:30am 18.9 21.3 18.7 99 0.1 NNE 4 7 2 4 1016.4 1016.1 0.0
04/02:00am 19.2 20.7 18.0 93 0.7 NNE 7 13 4 7 1016.5 1016.2 0.0
04/01:30am 19.6 20.9 17.2 86 1.5 ENE 6 9 3 5 1016.4 1016.1 0.0
04/01:00am 19.8 20.4 16.8 83 1.8 ENE 9 17 5 9 1016.7 1016.4 0.0
04/12:30am 19.8 20.0 16.8 83 1.8 ENE 11 20 6 11 1016.9 1016.6 0.0
04/12:00am 19.9 20.7 17.3 85 1.6 ENE 9 15 5 8 1017.1 1016.8 0.0
 
Date/Time
EDT
Temp
°C
App
Temp
°C
Dew
Point
°C
Rel
Hum
%
Delta-T
°C
Wind Press
QNH
hPa
Press
MSL
hPa
Rain since
9am
mm
Dir  Spd
km/h
Gust
km/h
Spd
kts
Gust
kts
03/11:30pm 19.8 20.6 17.2 85 1.6 ENE 9 15 5 8 1017.2 1016.9 0.0

Other Formats:

Comma delimited format used in spreadsheet applications
http://www.bom.gov.au/fwo/IDN60801/IDN60801.95940.axf

JavaScript Object Notation format (JSON) in row-major order
http://www.bom.gov.au/fwo/IDN60801/IDN60801.95940.json